createdAt,value
2022-10-06T00:03:00.759Z,98.31
2022-10-06T00:08:04.917Z,98.32
2022-10-06T00:13:08.527Z,98.04
2022-10-06T00:18:11.861Z,98.51
2022-10-06T00:23:15.070Z,98.36
2022-10-06T00:28:18.672Z,98.72
2022-10-06T00:33:22.334Z,99.01
2022-10-06T00:38:26.229Z,99.24
2022-10-06T00:43:48.217Z,99.74
2022-10-06T00:49:00.315Z,99.77
2022-10-06T00:54:04.203Z,100.00
2022-10-06T00:59:13.460Z,99.98
2022-10-06T01:04:18.161Z,100.00
2022-10-06T01:09:22.609Z,99.92
2022-10-06T01:14:26.530Z,100.00
2022-10-06T01:19:50.252Z,100.00
2022-10-06T01:24:53.654Z,100.00
2022-10-06T01:29:57.870Z,100.00
2022-10-06T01:35:01.264Z,100.00
2022-10-06T01:40:06.236Z,100.00
2022-10-06T01:45:11.690Z,100.00
2022-10-06T01:50:15.911Z,100.00
2022-10-06T01:55:20.214Z,100.00
2022-10-06T02:00:24.868Z,100.00
2022-10-06T02:05:29.226Z,100.00
2022-10-06T02:10:33.410Z,100.00
2022-10-06T02:15:39.105Z,100.00
2022-10-06T02:20:44.348Z,100.00
2022-10-06T02:25:49.789Z,100.00
2022-10-06T02:30:54.934Z,100.00
2022-10-06T02:35:59.499Z,100.00
2022-10-06T02:41:04.004Z,100.00
2022-10-06T02:46:13.157Z,100.00
2022-10-06T02:51:22.609Z,100.00
2022-10-06T02:56:26.199Z,100.00
2022-10-06T03:01:30.335Z,100.00
2022-10-06T03:06:43.034Z,100.00
2022-10-06T03:11:52.370Z,100.00
2022-10-06T03:17:10.557Z,100.00
2022-10-06T03:22:18.827Z,100.00
2022-10-06T03:27:26.987Z,100.00
2022-10-06T03:32:33.437Z,100.00
2022-10-06T03:37:37.475Z,100.00
2022-10-06T03:42:42.400Z,100.00
2022-10-06T03:47:46.478Z,100.00
2022-10-06T03:52:51.713Z,100.00
2022-10-06T03:57:58.088Z,100.00
2022-10-06T04:03:01.465Z,100.00
2022-10-06T04:08:05.897Z,100.00
2022-10-06T04:13:09.274Z,100.00
2022-10-06T04:18:14.566Z,100.00
2022-10-06T04:23:20.619Z,100.00
2022-10-06T04:28:24.054Z,100.00
2022-10-06T04:33:28.530Z,100.00
2022-10-06T04:38:36.204Z,100.00
2022-10-06T04:43:41.190Z,100.00
2022-10-06T04:48:47.070Z,100.00
2022-10-06T04:53:51.696Z,100.00
2022-10-06T04:58:57.039Z,100.00
2022-10-06T05:04:02.603Z,100.00
2022-10-06T05:09:10.865Z,100.00
2022-10-06T05:14:16.564Z,100.00
2022-10-06T05:19:22.675Z,100.00
2022-10-06T05:24:26.822Z,100.00
2022-10-06T05:29:32.389Z,100.00
2022-10-06T05:34:36.217Z,100.00
2022-10-06T05:39:39.641Z,100.00
2022-10-06T05:44:43.690Z,100.00
2022-10-06T05:49:49.541Z,100.00
2022-10-06T05:54:53.455Z,100.00
2022-10-06T05:59:56.800Z,100.00
2022-10-06T06:05:00.202Z,100.00
2022-10-06T06:10:03.936Z,100.00
2022-10-06T06:15:26.005Z,100.00
2022-10-06T06:20:34.979Z,100.00
2022-10-06T06:25:38.313Z,100.00
2022-10-06T06:30:41.826Z,100.00
2022-10-06T06:35:45.314Z,100.00
2022-10-06T06:40:49.741Z,100.00
2022-10-06T06:45:54.821Z,100.00
2022-10-06T06:51:12.207Z,100.00
2022-10-06T06:56:15.758Z,100.00
2022-10-06T07:01:22.094Z,100.00
2022-10-06T07:06:29.214Z,100.00
2022-10-06T07:11:36.889Z,100.00
2022-10-06T07:17:02.411Z,100.00
2022-10-06T07:22:27.615Z,100.00
2022-10-06T07:27:44.734Z,100.00
2022-10-06T07:32:51.756Z,100.00
2022-10-06T07:37:55.749Z,100.00
2022-10-06T07:43:00.906Z,100.00
2022-10-06T07:48:14.752Z,100.00
2022-10-06T07:53:19.987Z,100.00
2022-10-06T07:58:28.750Z,100.00
2022-10-06T08:03:33.336Z,100.00
2022-10-06T08:08:37.236Z,100.00
2022-10-06T08:13:43.273Z,99.91
2022-10-06T08:18:56.631Z,99.59
2022-10-06T08:24:02.263Z,98.52
2022-10-06T08:29:06.652Z,97.54
2022-10-06T08:34:12.148Z,97.50
2022-10-06T08:39:15.736Z,96.57
2022-10-06T08:44:26.264Z,95.86
2022-10-06T08:49:39.518Z,95.22
2022-10-06T08:55:02.644Z,95.15
2022-10-06T09:00:21.129Z,95.09
2022-10-06T09:05:30.028Z,94.68
2022-10-06T09:10:36.599Z,94.64
2022-10-06T09:16:02.408Z,93.75
2022-10-06T09:21:18.098Z,93.88
2022-10-06T09:26:24.126Z,92.87
2022-10-06T09:31:35.250Z,91.32
2022-10-06T09:37:05.267Z,91.44
2022-10-06T09:42:19.987Z,90.14
2022-10-06T09:47:32.171Z,90.58
2022-10-06T09:52:35.504Z,91.38
2022-10-06T09:57:39.446Z,91.65
2022-10-06T10:02:43.063Z,91.22
2022-10-06T10:07:48.295Z,91.40
2022-10-06T10:12:55.312Z,91.47
2022-10-06T10:18:03.428Z,91.56
2022-10-06T10:23:28.587Z,91.10
2022-10-06T10:28:52.767Z,90.00
2022-10-06T10:34:24.635Z,89.68
2022-10-06T10:39:36.654Z,89.52
2022-10-06T10:45:09.995Z,89.37
2022-10-06T10:50:20.965Z,89.30
2022-10-06T10:55:41.695Z,88.70
2022-10-06T11:00:47.635Z,89.05
2022-10-06T11:05:50.767Z,88.06
2022-10-06T11:10:59.189Z,87.58
2022-10-06T11:16:16.161Z,86.79
2022-10-06T11:21:34.961Z,86.82
2022-10-06T11:26:49.189Z,85.89
2022-10-06T11:32:19.077Z,83.86
2022-10-06T11:37:45.349Z,82.25
2022-10-06T11:42:56.063Z,81.72
2022-10-06T11:48:19.211Z,81.41
2022-10-06T11:53:37.716Z,80.59
2022-10-06T11:58:56.949Z,80.85
2022-10-06T12:04:09.319Z,79.84
2022-10-06T12:09:44.641Z,80.47
2022-10-06T12:21:01.537Z,77.30
2022-10-06T12:26:26.778Z,77.29
2022-10-06T12:31:55.888Z,77.13
2022-10-06T12:37:22.287Z,76.87
2022-10-06T12:42:29.012Z,76.86
2022-10-06T12:47:42.169Z,76.62
2022-10-06T12:52:54.577Z,76.02
2022-10-06T12:57:58.295Z,75.79
2022-10-06T13:03:06.405Z,76.63
2022-10-06T13:08:26.100Z,76.46
2022-10-06T13:13:30.026Z,76.68
2022-10-06T13:18:36.146Z,75.68
2022-10-06T13:23:39.610Z,75.27
2022-10-06T13:28:44.498Z,74.93
2022-10-06T13:33:55.634Z,75.28
2022-10-06T13:38:59.496Z,75.38
2022-10-06T13:44:11.800Z,75.62
2022-10-06T13:49:26.566Z,75.35
2022-10-06T13:54:56.701Z,75.30
2022-10-06T14:00:10.580Z,74.90
2022-10-06T14:05:32.302Z,74.85
2022-10-06T14:10:42.789Z,74.91
2022-10-06T14:15:50.948Z,74.71
2022-10-06T14:21:06.723Z,74.86
2022-10-06T14:26:12.712Z,74.61
2022-10-06T14:31:16.226Z,74.19
2022-10-06T14:36:33.835Z,74.05
2022-10-06T14:41:40.115Z,74.73
2022-10-06T14:46:54.536Z,75.21
2022-10-06T14:51:58.576Z,74.67
2022-10-06T14:57:01.827Z,74.72
2022-10-06T15:02:05.184Z,74.73
2022-10-06T15:07:27.088Z,74.85
2022-10-06T15:12:33.982Z,74.84
2022-10-06T15:17:37.853Z,74.69
2022-10-06T15:22:41.866Z,75.13
2022-10-06T15:28:03.856Z,75.26
2022-10-06T15:33:07.572Z,75.44
2022-10-06T15:38:14.306Z,75.70
2022-10-06T15:43:40.405Z,75.84
2022-10-06T15:48:45.475Z,76.21
2022-10-06T15:53:54.477Z,76.60
2022-10-06T15:58:59.054Z,76.84
2022-10-06T16:04:12.109Z,77.27
2022-10-06T16:09:21.364Z,77.45
2022-10-06T16:14:25.282Z,78.03
2022-10-06T16:19:30.576Z,78.44
2022-10-06T16:24:35.833Z,78.91
2022-10-06T16:29:44.855Z,79.26
2022-10-06T16:34:50.605Z,79.93
2022-10-06T16:39:54.959Z,80.47
2022-10-06T16:44:58.412Z,81.15
2022-10-06T16:50:01.683Z,81.60
2022-10-06T16:55:05.921Z,82.30
2022-10-06T17:00:10.285Z,82.43
2022-10-06T17:05:13.952Z,82.72
2022-10-06T17:10:21.334Z,83.37
2022-10-06T17:15:31.341Z,83.79
2022-10-06T17:20:37.249Z,84.00
2022-10-06T17:25:46.314Z,84.36
2022-10-06T17:31:00.742Z,84.15
2022-10-06T17:36:17.073Z,84.54
2022-10-06T17:41:22.847Z,84.90
2022-10-06T17:46:27.778Z,85.24
2022-10-06T17:51:33.978Z,85.82
2022-10-06T17:57:44.588Z,86.65
2022-10-06T18:02:48.388Z,87.12
2022-10-06T18:07:51.874Z,87.43
2022-10-06T18:12:55.034Z,87.46
2022-10-06T18:17:59.170Z,87.65
2022-10-06T18:23:05.482Z,87.93
2022-10-06T18:28:12.302Z,88.00
2022-10-06T18:38:44.839Z,89.38
2022-10-06T18:43:56.668Z,89.37
2022-10-06T18:49:12.608Z,89.54
2022-10-06T18:54:30.701Z,90.90
2022-10-06T18:59:46.352Z,91.27
2022-10-06T19:05:11.896Z,90.99
2022-10-06T19:10:28.484Z,91.29
2022-10-06T19:16:03.416Z,91.45
2022-10-06T19:33:19.822Z,92.60
2022-10-06T19:38:28.705Z,93.07
2022-10-06T19:43:35.846Z,92.86
2022-10-06T19:48:54.181Z,93.70
2022-10-06T19:54:04.245Z,93.44
2022-10-06T19:59:18.037Z,94.33
2022-10-06T20:04:31.267Z,93.95
2022-10-06T20:09:38.288Z,93.28
2022-10-06T20:14:44.166Z,94.49
2022-10-06T20:19:55.122Z,94.44
2022-10-06T20:25:21.405Z,94.08
2022-10-06T20:30:25.734Z,94.42
2022-10-06T20:35:33.714Z,94.38
2022-10-06T20:40:57.182Z,95.08
2022-10-06T20:46:14.044Z,95.31
2022-10-06T20:51:40.899Z,95.27
2022-10-06T20:57:44.125Z,95.90
2022-10-06T21:02:53.031Z,96.70
2022-10-06T21:08:00.418Z,96.46
2022-10-06T21:13:03.889Z,96.68
2022-10-06T21:18:07.261Z,97.19
2022-10-06T21:23:16.313Z,97.74
2022-10-06T21:28:24.697Z,96.31
2022-10-06T21:33:32.044Z,95.59
2022-10-06T21:38:43.075Z,96.72
2022-10-06T21:43:55.104Z,96.08
2022-10-06T21:49:06.284Z,96.33
2022-10-06T21:54:14.626Z,97.37
2022-10-06T21:59:18.870Z,97.31
2022-10-06T22:04:23.048Z,97.64
2022-10-06T22:09:26.687Z,97.49
2022-10-06T22:14:30.771Z,98.12
2022-10-06T22:19:36.974Z,98.19
2022-10-06T22:24:46.432Z,97.70
2022-10-06T22:29:52.610Z,97.54
2022-10-06T22:35:02.712Z,97.49
2022-10-06T22:40:07.849Z,97.42
2022-10-06T22:45:20.338Z,97.44
2022-10-06T22:50:25.336Z,97.85
2022-10-06T22:55:29.821Z,98.07
2022-10-06T23:00:36.730Z,98.50
2022-10-06T23:05:42.572Z,98.38
2022-10-06T23:10:47.280Z,98.73
2022-10-06T23:15:50.680Z,99.28
2022-10-06T23:20:54.051Z,99.65
2022-10-06T23:25:59.919Z,100.00
2022-10-06T23:31:08.308Z,99.80
2022-10-06T23:36:12.800Z,99.67
2022-10-06T23:41:16.576Z,98.96
2022-10-06T23:46:21.629Z,98.64
2022-10-06T23:51:24.886Z,98.78
2022-10-06T23:56:28.068Z,98.53
